sensor_id;sensor_type;location;lat;lon;timestamp;temperature;humidity
70079;DHT22;57451;52.496;13.456;2023-02-20T00:01:04;3.40;68.40
70079;DHT22;57451;52.496;13.456;2023-02-20T00:03:31;3.40;68.10
70079;DHT22;57451;52.496;13.456;2023-02-20T00:05:58;3.40;68.10
70079;DHT22;57451;52.496;13.456;2023-02-20T00:08:25;3.40;68.20
70079;DHT22;57451;52.496;13.456;2023-02-20T00:10:53;3.40;68.60
70079;DHT22;57451;52.496;13.456;2023-02-20T00:13:21;3.30;68.80
70079;DHT22;57451;52.496;13.456;2023-02-20T00:15:48;3.30;69.00
70079;DHT22;57451;52.496;13.456;2023-02-20T00:18:16;3.20;69.20
70079;DHT22;57451;52.496;13.456;2023-02-20T00:20:43;3.30;68.80
70079;DHT22;57451;52.496;13.456;2023-02-20T00:23:11;3.30;69.10
70079;DHT22;57451;52.496;13.456;2023-02-20T00:25:38;3.30;69.10
70079;DHT22;57451;52.496;13.456;2023-02-20T00:28:05;3.30;69.00
70079;DHT22;57451;52.496;13.456;2023-02-20T00:30:34;3.30;69.10
70079;DHT22;57451;52.496;13.456;2023-02-20T00:33:01;3.30;69.20
70079;DHT22;57451;52.496;13.456;2023-02-20T00:35:28;3.30;69.40
70079;DHT22;57451;52.496;13.456;2023-02-20T00:37:56;3.20;69.40
70079;DHT22;57451;52.496;13.456;2023-02-20T00:40:24;3.20;69.10
70079;DHT22;57451;52.496;13.456;2023-02-20T00:42:52;3.30;68.90
70079;DHT22;57451;52.496;13.456;2023-02-20T00:45:19;3.30;69.00
70079;DHT22;57451;52.496;13.456;2023-02-20T00:47:48;3.30;68.90
70079;DHT22;57451;52.496;13.456;2023-02-20T00:50:16;3.20;69.30
70079;DHT22;57451;52.496;13.456;2023-02-20T00:52:44;3.20;69.30
70079;DHT22;57451;52.496;13.456;2023-02-20T00:55:11;3.20;69.10
70079;DHT22;57451;52.496;13.456;2023-02-20T00:57:39;3.20;69.10
70079;DHT22;57451;52.496;13.456;2023-02-20T01:00:09;3.20;69.20
70079;DHT22;57451;52.496;13.456;2023-02-20T01:02:37;3.10;69.90
70079;DHT22;57451;52.496;13.456;2023-02-20T01:05:06;3.00;70.10
70079;DHT22;57451;52.496;13.456;2023-02-20T01:07:35;3.00;70.60
70079;DHT22;57451;52.496;13.456;2023-02-20T01:10:03;3.00;70.40
70079;DHT22;57451;52.496;13.456;2023-02-20T01:12:31;3.10;70.10
70079;DHT22;57451;52.496;13.456;2023-02-20T01:14:59;3.10;69.90
70079;DHT22;57451;52.496;13.456;2023-02-20T01:17:28;3.00;70.20
70079;DHT22;57451;52.496;13.456;2023-02-20T01:19:55;3.00;70.60
70079;DHT22;57451;52.496;13.456;2023-02-20T01:22:24;3.00;71.00
70079;DHT22;57451;52.496;13.456;2023-02-20T01:24:51;2.90;71.00
70079;DHT22;57451;52.496;13.456;2023-02-20T01:27:19;3.00;71.00
70079;DHT22;57451;52.496;13.456;2023-02-20T01:29:46;3.00;71.10
70079;DHT22;57451;52.496;13.456;2023-02-20T01:32:13;2.90;71.30
70079;DHT22;57451;52.496;13.456;2023-02-20T01:34:40;2.90;71.40
70079;DHT22;57451;52.496;13.456;2023-02-20T01:37:11;2.90;71.50
70079;DHT22;57451;52.496;13.456;2023-02-20T01:39:41;3.00;71.30
70079;DHT22;57451;52.496;13.456;2023-02-20T01:42:13;3.00;71.40
70079;DHT22;57451;52.496;13.456;2023-02-20T01:44:44;3.00;71.30
70079;DHT22;57451;52.496;13.456;2023-02-20T01:47:15;3.10;71.30
70079;DHT22;57451;52.496;13.456;2023-02-20T01:49:44;3.00;71.20
70079;DHT22;57451;52.496;13.456;2023-02-20T01:52:16;3.00;71.40
70079;DHT22;57451;52.496;13.456;2023-02-20T01:54:50;3.00;71.40
70079;DHT22;57451;52.496;13.456;2023-02-20T01:57:20;3.10;71.30
70079;DHT22;57451;52.496;13.456;2023-02-20T01:59:51;3.10;71.60
70079;DHT22;57451;52.496;13.456;2023-02-20T02:02:23;3.00;71.90
70079;DHT22;57451;52.496;13.456;2023-02-20T02:04:50;3.10;71.80
70079;DHT22;57451;52.496;13.456;2023-02-20T02:07:21;3.10;71.70
70079;DHT22;57451;52.496;13.456;2023-02-20T02:09:53;3.10;71.60
70079;DHT22;57451;52.496;13.456;2023-02-20T02:12:22;3.20;71.50
70079;DHT22;57451;52.496;13.456;2023-02-20T02:14:49;3.10;71.50
70079;DHT22;57451;52.496;13.456;2023-02-20T02:17:29;3.20;71.40
70079;DHT22;57451;52.496;13.456;2023-02-20T02:20:27;3.20;71.30
70079;DHT22;57451;52.496;13.456;2023-02-20T02:26:17;3.10;71.80
70079;DHT22;57451;52.496;13.456;2023-02-20T02:29:24;3.10;72.10
70079;DHT22;57451;52.496;13.456;2023-02-20T02:32:10;3.20;71.90
70079;DHT22;57451;52.496;13.456;2023-02-20T02:35:17;3.20;72.00
70079;DHT22;57451;52.496;13.456;2023-02-20T02:38:00;3.20;71.70
70079;DHT22;57451;52.496;13.456;2023-02-20T02:40:37;3.20;71.80
70079;DHT22;57451;52.496;13.456;2023-02-20T02:43:14;3.30;72.00
70079;DHT22;57451;52.496;13.456;2023-02-20T02:45:46;3.30;71.70
70079;DHT22;57451;52.496;13.456;2023-02-20T02:48:19;3.30;71.80
70079;DHT22;57451;52.496;13.456;2023-02-20T02:50:48;3.40;71.70
70079;DHT22;57451;52.496;13.456;2023-02-20T02:53:18;3.40;71.60
70079;DHT22;57451;52.496;13.456;2023-02-20T02:55:45;3.40;71.90
70079;DHT22;57451;52.496;13.456;2023-02-20T02:58:15;3.40;72.50
70079;DHT22;57451;52.496;13.456;2023-02-20T03:00:46;3.40;72.70
70079;DHT22;57451;52.496;13.456;2023-02-20T03:03:20;3.30;72.70
70079;DHT22;57451;52.496;13.456;2023-02-20T03:05:53;3.40;72.60
70079;DHT22;57451;52.496;13.456;2023-02-20T03:08:30;3.50;72.50
70079;DHT22;57451;52.496;13.456;2023-02-20T03:11:04;3.50;72.80
70079;DHT22;57451;52.496;13.456;2023-02-20T03:13:39;3.50;72.80
70079;DHT22;57451;52.496;13.456;2023-02-20T03:16:32;3.50;73.30
70079;DHT22;57451;52.496;13.456;2023-02-20T03:19:04;3.50;73.50
70079;DHT22;57451;52.496;13.456;2023-02-20T03:21:34;3.50;73.50
70079;DHT22;57451;52.496;13.456;2023-02-20T03:24:05;3.60;73.60
70079;DHT22;57451;52.496;13.456;2023-02-20T03:26:37;3.60;74.10
70079;DHT22;57451;52.496;13.456;2023-02-20T03:29:09;3.60;74.40
70079;DHT22;57451;52.496;13.456;2023-02-20T03:31:42;3.60;74.60
70079;DHT22;57451;52.496;13.456;2023-02-20T03:34:15;3.70;74.30
70079;DHT22;57451;52.496;13.456;2023-02-20T03:37:06;3.70;74.10
70079;DHT22;57451;52.496;13.456;2023-02-20T03:39:57;3.80;74.00
70079;DHT22;57451;52.496;13.456;2023-02-20T03:42:47;3.80;74.00
70079;DHT22;57451;52.496;13.456;2023-02-20T03:45:38;3.80;74.00
70079;DHT22;57451;52.496;13.456;2023-02-20T03:48:09;3.90;73.80
70079;DHT22;57451;52.496;13.456;2023-02-20T03:50:37;3.90;74.00
70079;DHT22;57451;52.496;13.456;2023-02-20T03:53:29;3.90;74.30
70079;DHT22;57451;52.496;13.456;2023-02-20T03:56:01;3.90;74.40
70079;DHT22;57451;52.496;13.456;2023-02-20T03:58:30;4.00;74.40
70079;DHT22;57451;52.496;13.456;2023-02-20T04:01:02;4.00;74.50
70079;DHT22;57451;52.496;13.456;2023-02-20T04:03:33;4.10;74.60
70079;DHT22;57451;52.496;13.456;2023-02-20T04:06:04;4.10;74.70
70079;DHT22;57451;52.496;13.456;2023-02-20T04:08:37;4.10;74.60
70079;DHT22;57451;52.496;13.456;2023-02-20T04:11:09;4.10;74.80
70079;DHT22;57451;52.496;13.456;2023-02-20T04:13:38;4.10;75.20
70079;DHT22;57451;52.496;13.456;2023-02-20T04:16:07;4.20;75.00
70079;DHT22;57451;52.496;13.456;2023-02-20T04:18:35;4.20;74.80
70079;DHT22;57451;52.496;13.456;2023-02-20T04:21:07;4.30;75.00
70079;DHT22;57451;52.496;13.456;2023-02-20T04:23:41;4.30;75.10
70079;DHT22;57451;52.496;13.456;2023-02-20T04:26:16;4.30;75.50
70079;DHT22;57451;52.496;13.456;2023-02-20T04:28:46;4.30;75.30
70079;DHT22;57451;52.496;13.456;2023-02-20T04:31:16;4.30;75.30
70079;DHT22;57451;52.496;13.456;2023-02-20T04:33:46;4.40;75.50
70079;DHT22;57451;52.496;13.456;2023-02-20T04:36:18;4.30;75.90
70079;DHT22;57451;52.496;13.456;2023-02-20T04:38:47;4.40;75.80
70079;DHT22;57451;52.496;13.456;2023-02-20T04:41:18;4.40;75.70
70079;DHT22;57451;52.496;13.456;2023-02-20T04:43:46;4.50;75.70
70079;DHT22;57451;52.496;13.456;2023-02-20T04:46:14;4.50;75.50
70079;DHT22;57451;52.496;13.456;2023-02-20T04:48:42;4.50;75.70
70079;DHT22;57451;52.496;13.456;2023-02-20T04:51:09;4.50;75.70
70079;DHT22;57451;52.496;13.456;2023-02-20T04:53:37;4.60;75.60
70079;DHT22;57451;52.496;13.456;2023-02-20T04:56:05;4.60;75.40
70079;DHT22;57451;52.496;13.456;2023-02-20T04:58:37;4.60;75.50
70079;DHT22;57451;52.496;13.456;2023-02-20T05:01:13;4.70;75.60
70079;DHT22;57451;52.496;13.456;2023-02-20T05:03:41;4.70;75.40
70079;DHT22;57451;52.496;13.456;2023-02-20T05:06:08;4.70;75.20
70079;DHT22;57451;52.496;13.456;2023-02-20T05:08:35;4.70;75.40
70079;DHT22;57451;52.496;13.456;2023-02-20T05:11:02;4.70;75.40
70079;DHT22;57451;52.496;13.456;2023-02-20T05:13:30;4.80;75.10
70079;DHT22;57451;52.496;13.456;2023-02-20T05:15:59;4.80;75.20
70079;DHT22;57451;52.496;13.456;2023-02-20T05:18:27;4.80;75.30
70079;DHT22;57451;52.496;13.456;2023-02-20T05:20:54;4.80;75.60
70079;DHT22;57451;52.496;13.456;2023-02-20T05:23:40;4.80;75.70
70079;DHT22;57451;52.496;13.456;2023-02-20T05:26:08;4.90;75.60
70079;DHT22;57451;52.496;13.456;2023-02-20T05:28:36;4.90;75.80
70079;DHT22;57451;52.496;13.456;2023-02-20T05:31:07;4.90;75.60
70079;DHT22;57451;52.496;13.456;2023-02-20T05:33:34;5.00;75.70
70079;DHT22;57451;52.496;13.456;2023-02-20T05:36:01;5.00;75.70
70079;DHT22;57451;52.496;13.456;2023-02-20T05:38:28;5.00;75.90
70079;DHT22;57451;52.496;13.456;2023-02-20T05:40:56;5.00;75.90
70079;DHT22;57451;52.496;13.456;2023-02-20T05:43:23;5.00;75.80
70079;DHT22;57451;52.496;13.456;2023-02-20T05:45:50;5.00;76.10
70079;DHT22;57451;52.496;13.456;2023-02-20T05:48:19;5.00;76.20
70079;DHT22;57451;52.496;13.456;2023-02-20T05:50:46;5.00;76.60
70079;DHT22;57451;52.496;13.456;2023-02-20T05:53:19;5.10;76.50
70079;DHT22;57451;52.496;13.456;2023-02-20T05:55:46;5.10;76.80
70079;DHT22;57451;52.496;13.456;2023-02-20T05:58:14;5.10;76.70
70079;DHT22;57451;52.496;13.456;2023-02-20T06:00:41;5.20;76.40
70079;DHT22;57451;52.496;13.456;2023-02-20T06:03:08;5.20;76.50
70079;DHT22;57451;52.496;13.456;2023-02-20T06:05:40;5.20;76.90
70079;DHT22;57451;52.496;13.456;2023-02-20T06:08:07;5.20;77.20
70079;DHT22;57451;52.496;13.456;2023-02-20T06:10:35;5.20;77.30
70079;DHT22;57451;52.496;13.456;2023-02-20T06:13:02;5.20;77.20
70079;DHT22;57451;52.496;13.456;2023-02-20T06:15:30;5.20;77.00
70079;DHT22;57451;52.496;13.456;2023-02-20T06:17:57;5.20;77.30
70079;DHT22;57451;52.496;13.456;2023-02-20T06:20:24;5.30;77.10
70079;DHT22;57451;52.496;13.456;2023-02-20T06:22:53;5.20;77.10
70079;DHT22;57451;52.496;13.456;2023-02-20T06:25:20;5.30;77.10
70079;DHT22;57451;52.496;13.456;2023-02-20T06:27:47;5.30;76.90
70079;DHT22;57451;52.496;13.456;2023-02-20T06:30:15;5.40;76.90
70079;DHT22;57451;52.496;13.456;2023-02-20T06:32:42;5.30;77.00
70079;DHT22;57451;52.496;13.456;2023-02-20T06:35:09;5.40;77.00
70079;DHT22;57451;52.496;13.456;2023-02-20T06:37:36;5.40;77.00
70079;DHT22;57451;52.496;13.456;2023-02-20T06:40:06;5.40;76.90
70079;DHT22;57451;52.496;13.456;2023-02-20T06:42:33;5.40;76.90
70079;DHT22;57451;52.496;13.456;2023-02-20T06:45:00;5.50;76.70
70079;DHT22;57451;52.496;13.456;2023-02-20T06:47:27;5.40;76.70
70079;DHT22;57451;52.496;13.456;2023-02-20T06:49:55;5.40;76.90
70079;DHT22;57451;52.496;13.456;2023-02-20T06:52:22;5.40;77.10
70079;DHT22;57451;52.496;13.456;2023-02-20T06:54:49;5.40;77.20
70079;DHT22;57451;52.496;13.456;2023-02-20T06:57:20;5.50;77.30
70079;DHT22;57451;52.496;13.456;2023-02-20T06:59:47;5.50;77.30
70079;DHT22;57451;52.496;13.456;2023-02-20T07:02:16;5.50;77.00
70079;DHT22;57451;52.496;13.456;2023-02-20T07:04:47;5.50;76.90
70079;DHT22;57451;52.496;13.456;2023-02-20T07:07:15;5.60;76.90
70079;DHT22;57451;52.496;13.456;2023-02-20T07:09:42;5.60;76.70
70079;DHT22;57451;52.496;13.456;2023-02-20T07:12:10;5.60;76.50
70079;DHT22;57451;52.496;13.456;2023-02-20T07:14:39;5.70;76.30
70079;DHT22;57451;52.496;13.456;2023-02-20T07:17:06;5.80;75.90
70079;DHT22;57451;52.496;13.456;2023-02-20T07:19:33;5.80;76.20
70079;DHT22;57451;52.496;13.456;2023-02-20T07:22:01;5.80;75.90
70079;DHT22;57451;52.496;13.456;2023-02-20T07:24:28;5.80;75.80
70079;DHT22;57451;52.496;13.456;2023-02-20T07:26:55;5.80;75.90
70079;DHT22;57451;52.496;13.456;2023-02-20T07:29:22;5.90;75.20
70079;DHT22;57451;52.496;13.456;2023-02-20T07:31:50;5.90;75.10
70079;DHT22;57451;52.496;13.456;2023-02-20T07:34:18;5.90;74.80
70079;DHT22;57451;52.496;13.456;2023-02-20T07:36:45;5.90;74.70
70079;DHT22;57451;52.496;13.456;2023-02-20T07:39:12;5.90;74.60
70079;DHT22;57451;52.496;13.456;2023-02-20T07:41:40;5.90;74.40
70079;DHT22;57451;52.496;13.456;2023-02-20T07:44:27;5.90;74.40
70079;DHT22;57451;52.496;13.456;2023-02-20T07:46:55;6.00;74.10
70079;DHT22;57451;52.496;13.456;2023-02-20T07:49:23;6.00;73.50
70079;DHT22;57451;52.496;13.456;2023-02-20T07:51:50;6.10;73.70
70079;DHT22;57451;52.496;13.456;2023-02-20T07:54:17;6.00;73.40
70079;DHT22;57451;52.496;13.456;2023-02-20T07:56:44;6.00;73.30
70079;DHT22;57451;52.496;13.456;2023-02-20T07:59:12;6.10;73.10
70079;DHT22;57451;52.496;13.456;2023-02-20T08:01:39;6.10;72.70
70079;DHT22;57451;52.496;13.456;2023-02-20T08:04:07;6.10;72.20
70079;DHT22;57451;52.496;13.456;2023-02-20T08:06:35;6.10;72.40
70079;DHT22;57451;52.496;13.456;2023-02-20T08:09:02;6.20;72.30
70079;DHT22;57451;52.496;13.456;2023-02-20T08:11:32;6.20;72.00
70079;DHT22;57451;52.496;13.456;2023-02-20T08:14:00;6.30;71.70
70079;DHT22;57451;52.496;13.456;2023-02-20T08:16:27;6.30;71.70
70079;DHT22;57451;52.496;13.456;2023-02-20T08:18:54;6.30;71.50
70079;DHT22;57451;52.496;13.456;2023-02-20T08:21:23;6.30;71.50
70079;DHT22;57451;52.496;13.456;2023-02-20T08:23:50;6.30;71.40
70079;DHT22;57451;52.496;13.456;2023-02-20T08:26:18;6.40;71.10
70079;DHT22;57451;52.496;13.456;2023-02-20T08:28:46;6.40;71.20
70079;DHT22;57451;52.496;13.456;2023-02-20T08:31:13;6.40;70.90
70079;DHT22;57451;52.496;13.456;2023-02-20T08:33:57;6.40;70.90
70079;DHT22;57451;52.496;13.456;2023-02-20T08:36:25;6.50;70.80
70079;DHT22;57451;52.496;13.456;2023-02-20T08:38:52;6.50;70.70
70079;DHT22;57451;52.496;13.456;2023-02-20T08:41:20;6.50;70.50
70079;DHT22;57451;52.496;13.456;2023-02-20T08:43:48;6.60;70.40
70079;DHT22;57451;52.496;13.456;2023-02-20T08:46:15;6.60;70.20
70079;DHT22;57451;52.496;13.456;2023-02-20T08:48:43;6.70;70.10
70079;DHT22;57451;52.496;13.456;2023-02-20T08:51:11;6.70;69.70
70079;DHT22;57451;52.496;13.456;2023-02-20T08:53:40;6.70;70.00
70079;DHT22;57451;52.496;13.456;2023-02-20T08:56:07;6.70;69.80
70079;DHT22;57451;52.496;13.456;2023-02-20T08:58:35;6.80;69.70
70079;DHT22;57451;52.496;13.456;2023-02-20T09:01:03;6.80;69.60
70079;DHT22;57451;52.496;13.456;2023-02-20T09:03:30;6.80;69.10
70079;DHT22;57451;52.496;13.456;2023-02-20T09:05:57;6.90;69.40
70079;DHT22;57451;52.496;13.456;2023-02-20T09:08:25;6.90;69.20
70079;DHT22;57451;52.496;13.456;2023-02-20T09:10:53;7.00;69.10
70079;DHT22;57451;52.496;13.456;2023-02-20T09:13:21;7.00;68.80
70079;DHT22;57451;52.496;13.456;2023-02-20T09:15:48;7.00;69.00
70079;DHT22;57451;52.496;13.456;2023-02-20T09:18:15;7.00;68.80
70079;DHT22;57451;52.496;13.456;2023-02-20T09:20:43;7.00;69.00
70079;DHT22;57451;52.496;13.456;2023-02-20T09:23:10;7.10;68.70
70079;DHT22;57451;52.496;13.456;2023-02-20T09:25:37;7.20;68.40
70079;DHT22;57451;52.496;13.456;2023-02-20T09:28:06;7.20;68.10
70079;DHT22;57451;52.496;13.456;2023-02-20T09:30:34;7.30;68.20
70079;DHT22;57451;52.496;13.456;2023-02-20T09:33:02;7.30;68.00
70079;DHT22;57451;52.496;13.456;2023-02-20T09:35:29;7.40;68.00
70079;DHT22;57451;52.496;13.456;2023-02-20T09:37:57;7.40;67.60
70079;DHT22;57451;52.496;13.456;2023-02-20T09:40:26;7.50;67.50
70079;DHT22;57451;52.496;13.456;2023-02-20T09:43:13;7.50;67.30
70079;DHT22;57451;52.496;13.456;2023-02-20T09:45:51;7.50;67.50
70079;DHT22;57451;52.496;13.456;2023-02-20T09:48:27;7.60;67.00
70079;DHT22;57451;52.496;13.456;2023-02-20T09:50:59;7.60;67.00
70079;DHT22;57451;52.496;13.456;2023-02-20T09:53:31;7.60;66.60
70079;DHT22;57451;52.496;13.456;2023-02-20T09:56:00;7.60;66.60
70079;DHT22;57451;52.496;13.456;2023-02-20T09:58:39;7.70;66.80
70079;DHT22;57451;52.496;13.456;2023-02-20T10:01:08;7.80;66.50
70079;DHT22;57451;52.496;13.456;2023-02-20T10:03:50;7.80;66.20
70079;DHT22;57451;52.496;13.456;2023-02-20T10:06:21;7.90;66.40
70079;DHT22;57451;52.496;13.456;2023-02-20T10:08:49;7.90;65.70
70079;DHT22;57451;52.496;13.456;2023-02-20T10:11:27;7.90;65.50
70079;DHT22;57451;52.496;13.456;2023-02-20T10:14:08;8.00;65.60
70079;DHT22;57451;52.496;13.456;2023-02-20T10:16:42;8.10;65.40
70079;DHT22;57451;52.496;13.456;2023-02-20T10:19:19;8.20;65.10
70079;DHT22;57451;52.496;13.456;2023-02-20T10:21:58;8.20;64.90
70079;DHT22;57451;52.496;13.456;2023-02-20T10:27:26;8.20;64.60
70079;DHT22;57451;52.496;13.456;2023-02-20T10:29:58;8.30;64.50
70079;DHT22;57451;52.496;13.456;2023-02-20T10:32:30;8.30;64.00
70079;DHT22;57451;52.496;13.456;2023-02-20T10:35:03;8.40;64.40
70079;DHT22;57451;52.496;13.456;2023-02-20T10:37:34;8.40;64.30
70079;DHT22;57451;52.496;13.456;2023-02-20T10:40:19;8.40;64.30
70079;DHT22;57451;52.496;13.456;2023-02-20T10:42:53;8.50;64.20
70079;DHT22;57451;52.496;13.456;2023-02-20T10:45:29;8.50;64.50
70079;DHT22;57451;52.496;13.456;2023-02-20T10:48:03;8.60;64.00
70079;DHT22;57451;52.496;13.456;2023-02-20T10:50:35;8.60;64.20
70079;DHT22;57451;52.496;13.456;2023-02-20T10:53:12;8.60;64.20
70079;DHT22;57451;52.496;13.456;2023-02-20T10:55:45;8.60;64.20
70079;DHT22;57451;52.496;13.456;2023-02-20T10:58:18;8.70;64.00
70079;DHT22;57451;52.496;13.456;2023-02-20T11:00:51;8.70;64.10
70079;DHT22;57451;52.496;13.456;2023-02-20T11:03:23;8.70;64.30
70079;DHT22;57451;52.496;13.456;2023-02-20T11:05:53;8.80;64.20
70079;DHT22;57451;52.496;13.456;2023-02-20T11:08:22;8.80;64.50
70079;DHT22;57451;52.496;13.456;2023-02-20T11:10:53;8.80;64.50
70079;DHT22;57451;52.496;13.456;2023-02-20T11:13:23;8.80;64.40
70079;DHT22;57451;52.496;13.456;2023-02-20T11:15:54;8.90;64.60
70079;DHT22;57451;52.496;13.456;2023-02-20T11:18:24;8.90;64.90
70079;DHT22;57451;52.496;13.456;2023-02-20T11:20:54;9.00;65.00
70079;DHT22;57451;52.496;13.456;2023-02-20T11:23:40;9.00;64.50
70079;DHT22;57451;52.496;13.456;2023-02-20T11:26:28;9.00;65.00
70079;DHT22;57451;52.496;13.456;2023-02-20T11:29:01;9.10;65.00
70079;DHT22;57451;52.496;13.456;2023-02-20T11:31:30;9.10;65.00
70079;DHT22;57451;52.496;13.456;2023-02-20T11:34:00;9.20;65.10
70079;DHT22;57451;52.496;13.456;2023-02-20T11:36:38;9.10;65.30
70079;DHT22;57451;52.496;13.456;2023-02-20T11:39:19;9.10;65.40
70079;DHT22;57451;52.496;13.456;2023-02-20T11:41:49;9.10;65.50
70079;DHT22;57451;52.496;13.456;2023-02-20T11:44:21;9.10;65.60
70079;DHT22;57451;52.496;13.456;2023-02-20T11:47:21;9.20;65.70
70079;DHT22;57451;52.496;13.456;2023-02-20T11:50:08;9.20;65.80
70079;DHT22;57451;52.496;13.456;2023-02-20T11:52:57;9.30;66.10
70079;DHT22;57451;52.496;13.456;2023-02-20T11:55:25;9.30;65.60
70079;DHT22;57451;52.496;13.456;2023-02-20T11:57:54;9.30;65.60
70079;DHT22;57451;52.496;13.456;2023-02-20T12:00:23;9.30;65.80
70079;DHT22;57451;52.496;13.456;2023-02-20T12:02:54;9.30;66.10
70079;DHT22;57451;52.496;13.456;2023-02-20T12:05:35;9.30;66.30
70079;DHT22;57451;52.496;13.456;2023-02-20T12:08:34;9.40;66.40
70079;DHT22;57451;52.496;13.456;2023-02-20T12:11:05;9.40;66.70
70079;DHT22;57451;52.496;13.456;2023-02-20T12:13:37;9.40;66.80
70079;DHT22;57451;52.496;13.456;2023-02-20T12:16:19;9.40;67.00
70079;DHT22;57451;52.496;13.456;2023-02-20T12:18:55;9.40;67.20
70079;DHT22;57451;52.496;13.456;2023-02-20T12:21:33;9.50;67.20
70079;DHT22;57451;52.496;13.456;2023-02-20T12:24:11;9.50;67.50
70079;DHT22;57451;52.496;13.456;2023-02-20T12:26:48;9.50;67.30
70079;DHT22;57451;52.496;13.456;2023-02-20T12:29:36;9.50;67.40
70079;DHT22;57451;52.496;13.456;2023-02-20T12:32:20;9.50;67.50
70079;DHT22;57451;52.496;13.456;2023-02-20T12:35:15;9.60;67.80
70079;DHT22;57451;52.496;13.456;2023-02-20T12:37:51;9.60;67.50
70079;DHT22;57451;52.496;13.456;2023-02-20T12:40:32;9.60;67.60
70079;DHT22;57451;52.496;13.456;2023-02-20T12:43:09;9.70;67.60
70079;DHT22;57451;52.496;13.456;2023-02-20T12:45:45;9.70;67.80
70079;DHT22;57451;52.496;13.456;2023-02-20T12:48:26;9.70;68.00
70079;DHT22;57451;52.496;13.456;2023-02-20T12:51:05;9.70;67.80
70079;DHT22;57451;52.496;13.456;2023-02-20T12:53:47;9.70;68.10
70079;DHT22;57451;52.496;13.456;2023-02-20T12:56:28;9.70;68.10
70079;DHT22;57451;52.496;13.456;2023-02-20T12:59:03;9.70;68.80
70079;DHT22;57451;52.496;13.456;2023-02-20T13:01:33;9.70;68.90
70079;DHT22;57451;52.496;13.456;2023-02-20T13:04:16;9.70;68.90
70079;DHT22;57451;52.496;13.456;2023-02-20T13:06:52;9.60;69.50
70079;DHT22;57451;52.496;13.456;2023-02-20T13:09:27;9.60;70.10
70079;DHT22;57451;52.496;13.456;2023-02-20T13:12:02;9.60;70.10
70079;DHT22;57451;52.496;13.456;2023-02-20T13:14:40;9.60;70.20
70079;DHT22;57451;52.496;13.456;2023-02-20T13:17:19;9.50;70.80
70079;DHT22;57451;52.496;13.456;2023-02-20T13:19:53;9.50;71.40
70079;DHT22;57451;52.496;13.456;2023-02-20T13:22:23;9.40;71.80
70079;DHT22;57451;52.496;13.456;2023-02-20T13:24:51;9.40;72.00
70079;DHT22;57451;52.496;13.456;2023-02-20T13:27:29;9.50;71.80
70079;DHT22;57451;52.496;13.456;2023-02-20T13:29:59;9.50;71.70
70079;DHT22;57451;52.496;13.456;2023-02-20T13:32:29;9.50;71.80
70079;DHT22;57451;52.496;13.456;2023-02-20T13:38:09;9.40;72.50
70079;DHT22;57451;52.496;13.456;2023-02-20T13:40:41;9.40;72.50
70079;DHT22;57451;52.496;13.456;2023-02-20T13:43:25;9.30;72.80
70079;DHT22;57451;52.496;13.456;2023-02-20T13:46:12;9.20;73.20
70079;DHT22;57451;52.496;13.456;2023-02-20T13:48:43;9.20;73.30
70079;DHT22;57451;52.496;13.456;2023-02-20T13:51:31;9.30;73.20
70079;DHT22;57451;52.496;13.456;2023-02-20T13:54:16;9.20;73.40
70079;DHT22;57451;52.496;13.456;2023-02-20T13:56:49;9.30;73.30
70079;DHT22;57451;52.496;13.456;2023-02-20T13:59:18;9.20;73.50
70079;DHT22;57451;52.496;13.456;2023-02-20T14:01:53;9.10;73.90
70079;DHT22;57451;52.496;13.456;2023-02-20T14:04:21;9.10;73.80
70079;DHT22;57451;52.496;13.456;2023-02-20T14:06:49;9.10;73.90
70079;DHT22;57451;52.496;13.456;2023-02-20T14:09:27;9.10;73.90
70079;DHT22;57451;52.496;13.456;2023-02-20T14:12:06;9.10;73.80
70079;DHT22;57451;52.496;13.456;2023-02-20T14:14:40;9.10;73.80
70079;DHT22;57451;52.496;13.456;2023-02-20T14:17:12;9.10;73.90
70079;DHT22;57451;52.496;13.456;2023-02-20T14:19:41;9.10;73.90
70079;DHT22;57451;52.496;13.456;2023-02-20T14:22:28;9.10;73.80
70079;DHT22;57451;52.496;13.456;2023-02-20T14:25:22;9.20;73.80
70079;DHT22;57451;52.496;13.456;2023-02-20T14:27:50;9.20;73.60
70079;DHT22;57451;52.496;13.456;2023-02-20T14:30:19;9.20;73.60
70079;DHT22;57451;52.496;13.456;2023-02-20T14:32:49;9.10;73.70
70079;DHT22;57451;52.496;13.456;2023-02-20T14:38:34;9.30;73.60
70079;DHT22;57451;52.496;13.456;2023-02-20T14:41:11;9.20;73.20
70079;DHT22;57451;52.496;13.456;2023-02-20T14:43:43;9.20;73.30
70079;DHT22;57451;52.496;13.456;2023-02-20T14:46:21;9.10;73.60
70079;DHT22;57451;52.496;13.456;2023-02-20T14:48:49;9.10;73.40
70079;DHT22;57451;52.496;13.456;2023-02-20T14:51:29;9.20;73.40
70079;DHT22;57451;52.496;13.456;2023-02-20T14:53:57;9.20;73.00
70079;DHT22;57451;52.496;13.456;2023-02-20T14:56:27;9.20;73.00
70079;DHT22;57451;52.496;13.456;2023-02-20T14:58:54;9.10;72.90
70079;DHT22;57451;52.496;13.456;2023-02-20T15:01:35;9.10;73.10
70079;DHT22;57451;52.496;13.456;2023-02-20T15:04:09;9.10;73.00
70079;DHT22;57451;52.496;13.456;2023-02-20T15:06:39;9.10;72.80
70079;DHT22;57451;52.496;13.456;2023-02-20T15:09:08;9.10;72.70
70079;DHT22;57451;52.496;13.456;2023-02-20T15:11:51;9.10;72.80
70079;DHT22;57451;52.496;13.456;2023-02-20T15:14:23;9.10;72.60
70079;DHT22;57451;52.496;13.456;2023-02-20T15:17:08;9.20;72.50
70079;DHT22;57451;52.496;13.456;2023-02-20T15:19:41;9.20;72.10
70079;DHT22;57451;52.496;13.456;2023-02-20T15:22:22;9.30;72.30
70079;DHT22;57451;52.496;13.456;2023-02-20T15:24:50;9.30;71.90
70079;DHT22;57451;52.496;13.456;2023-02-20T15:27:20;9.30;71.90
70079;DHT22;57451;52.496;13.456;2023-02-20T15:30:11;9.30;71.80
70079;DHT22;57451;52.496;13.456;2023-02-20T15:32:40;9.30;71.90
70079;DHT22;57451;52.496;13.456;2023-02-20T15:35:16;9.30;71.70
70079;DHT22;57451;52.496;13.456;2023-02-20T15:37:44;9.30;71.60
70079;DHT22;57451;52.496;13.456;2023-02-20T15:40:20;9.30;71.50
70079;DHT22;57451;52.496;13.456;2023-02-20T15:42:49;9.40;71.50
70079;DHT22;57451;52.496;13.456;2023-02-20T15:45:24;9.30;71.60
70079;DHT22;57451;52.496;13.456;2023-02-20T15:47:52;9.20;71.80
70079;DHT22;57451;52.496;13.456;2023-02-20T15:50:19;9.30;71.90
70079;DHT22;57451;52.496;13.456;2023-02-20T15:52:47;9.20;71.80
70079;DHT22;57451;52.496;13.456;2023-02-20T15:55:16;9.20;71.90
70079;DHT22;57451;52.496;13.456;2023-02-20T15:57:44;9.20;72.00
70079;DHT22;57451;52.496;13.456;2023-02-20T16:00:20;9.20;72.20
70079;DHT22;57451;52.496;13.456;2023-02-20T16:02:50;9.30;72.00
70079;DHT22;57451;52.496;13.456;2023-02-20T16:05:18;9.20;72.10
70079;DHT22;57451;52.496;13.456;2023-02-20T16:07:46;9.20;72.10
70079;DHT22;57451;52.496;13.456;2023-02-20T16:10:14;9.20;72.20
70079;DHT22;57451;52.496;13.456;2023-02-20T16:12:42;9.30;72.30